sensor_id;sensor_type;location;lat;lon;timestamp;pressure;altitude;pressure_sealevel;temperature;humidity
7940;BME280;4015;48.888;9.226;2023-06-24T00:00:32;159449.94;;;16.74;81.39
7940;BME280;4015;48.888;9.226;2023-06-24T00:02:58;159430.66;;;16.66;81.21
7940;BME280;4015;48.888;9.226;2023-06-24T00:05:28;159420.38;;;16.62;82.13
7940;BME280;4015;48.888;9.226;2023-06-24T00:07:53;159328.06;;;16.26;82.83
7940;BME280;4015;48.888;9.226;2023-06-24T00:10:22;159371.69;;;16.43;82.88
7940;BME280;4015;48.888;9.226;2023-06-24T00:12:47;159316.53;;;16.21;83.00
7940;BME280;4015;48.888;9.226;2023-06-24T00:15:12;159325.53;;;16.25;82.83
7940;BME280;4015;48.888;9.226;2023-06-24T00:17:38;159352.47;;;16.35;82.52
7940;BME280;4015;48.888;9.226;2023-06-24T00:20:04;159302.47;;;16.15;83.60
7940;BME280;4015;48.888;9.226;2023-06-24T00:22:33;159302.47;;;16.15;83.42
7940;BME280;4015;48.888;9.226;2023-06-24T00:24:58;159306.31;;;16.17;83.83
7940;BME280;4015;48.888;9.226;2023-06-24T00:27:26;159271.72;;;16.03;83.86
7940;BME280;4015;48.888;9.226;2023-06-24T00:29:51;159256.31;;;15.97;84.79
7940;BME280;4015;48.888;9.226;2023-06-24T00:32:17;159278.09;;;16.06;84.60
7940;BME280;4015;48.888;9.226;2023-06-24T00:34:42;159290.94;;;16.11;84.64
7940;BME280;4015;48.888;9.226;2023-06-24T00:37:09;159299.88;;;16.14;84.45
7940;BME280;4015;48.888;9.226;2023-06-24T00:39:34;159293.47;;;16.12;85.21
7940;BME280;4015;48.888;9.226;2023-06-24T00:41:59;159274.25;;;16.04;84.96
7940;BME280;4015;48.888;9.226;2023-06-24T00:44:24;159284.50;;;16.08;84.40
7940;BME280;4015;48.888;9.226;2023-06-24T00:46:50;159308.88;;;16.18;83.66
7940;BME280;4015;48.888;9.226;2023-06-24T00:49:16;159301.16;;;16.15;84.47
7940;BME280;4015;48.888;9.226;2023-06-24T00:51:41;159287.09;;;16.09;84.68
7940;BME280;4015;48.888;9.226;2023-06-24T00:54:16;159270.38;;;16.03;85.04
7940;BME280;4015;48.888;9.226;2023-06-24T00:56:41;159279.38;;;16.06;84.34
7940;BME280;4015;48.888;9.226;2023-06-24T00:59:10;159221.69;;;15.83;85.42
7940;BME280;4015;48.888;9.226;2023-06-24T01:01:37;159238.34;;;15.90;85.78
7940;BME280;4015;48.888;9.226;2023-06-24T01:04:03;159215.31;;;15.81;85.38
7940;BME280;4015;48.888;9.226;2023-06-24T01:06:29;159187.09;;;15.70;86.29
7940;BME280;4015;48.888;9.226;2023-06-24T01:08:58;159266.56;;;16.01;85.62
7940;BME280;4015;48.888;9.226;2023-06-24T01:11:26;159222.97;;;15.84;85.78
7940;BME280;4015;48.888;9.226;2023-06-24T01:13:51;159176.88;;;15.66;86.67
7940;BME280;4015;48.888;9.226;2023-06-24T01:25:46;159170.44;;;15.63;87.77
7940;BME280;4015;48.888;9.226;2023-06-24T01:33:50;159108.88;;;15.38;88.45
7940;BME280;4015;48.888;9.226;2023-06-24T01:36:18;159148.63;;;15.54;87.72
7940;BME280;4015;48.888;9.226;2023-06-24T01:38:51;159147.34;;;15.54;87.70
7940;BME280;4015;48.888;9.226;2023-06-24T01:41:22;159111.44;;;15.39;87.72
7940;BME280;4015;48.888;9.226;2023-06-24T01:43:52;159129.41;;;15.47;87.89
7940;BME280;4015;48.888;9.226;2023-06-24T01:46:21;159121.72;;;15.44;88.09
7940;BME280;4015;48.888;9.226;2023-06-24T01:48:47;159052.53;;;15.16;88.84
7940;BME280;4015;48.888;9.226;2023-06-24T01:51:18;159075.59;;;15.25;88.64
7940;BME280;4015;48.888;9.226;2023-06-24T01:53:49;159050.00;;;15.15;88.53
7940;BME280;4015;48.888;9.226;2023-06-24T01:56:15;159026.91;;;15.06;88.92
7940;BME280;4015;48.888;9.226;2023-06-24T01:58:43;159062.75;;;15.20;88.36
7940;BME280;4015;48.888;9.226;2023-06-24T02:01:10;159096.06;;;15.33;87.53
7940;BME280;4015;48.888;9.226;2023-06-24T02:03:36;159076.88;;;15.26;87.72
7940;BME280;4015;48.888;9.226;2023-06-24T02:06:04;159052.53;;;15.16;87.74
7940;BME280;4015;48.888;9.226;2023-06-24T02:08:33;159055.09;;;15.17;87.53
7940;BME280;4015;48.888;9.226;2023-06-24T02:10:59;159035.91;;;15.09;87.90
7940;BME280;4015;48.888;9.226;2023-06-24T02:13:28;158985.94;;;14.90;88.66
7940;BME280;4015;48.888;9.226;2023-06-24T02:15:58;158934.69;;;14.69;89.06
7940;BME280;4015;48.888;9.226;2023-06-24T02:18:26;158966.69;;;14.82;89.26
7940;BME280;4015;48.888;9.226;2023-06-24T02:20:53;158998.72;;;14.95;88.62
7940;BME280;4015;48.888;9.226;2023-06-24T02:23:21;158969.25;;;14.83;89.01
7940;BME280;4015;48.888;9.226;2023-06-24T02:25:48;158973.13;;;14.84;89.48
7940;BME280;4015;48.888;9.226;2023-06-24T02:28:14;158976.97;;;14.86;89.63
7940;BME280;4015;48.888;9.226;2023-06-24T02:30:41;158973.13;;;14.84;89.43
7940;BME280;4015;48.888;9.226;2023-06-24T02:33:08;159002.59;;;14.96;89.42
7940;BME280;4015;48.888;9.226;2023-06-24T02:35:34;158978.25;;;14.87;89.89
7940;BME280;4015;48.888;9.226;2023-06-24T02:37:59;158953.88;;;14.77;90.20
7940;BME280;4015;48.888;9.226;2023-06-24T02:40:25;158970.59;;;14.83;90.26
7940;BME280;4015;48.888;9.226;2023-06-24T02:42:52;158969.25;;;14.83;90.17
7940;BME280;4015;48.888;9.226;2023-06-24T02:45:17;158969.25;;;14.83;90.28
7940;BME280;4015;48.888;9.226;2023-06-24T02:47:45;158903.94;;;14.57;91.22
7940;BME280;4015;48.888;9.226;2023-06-24T02:50:11;158882.19;;;14.48;91.42
7940;BME280;4015;48.888;9.226;2023-06-24T02:52:37;158871.88;;;14.44;91.45
7940;BME280;4015;48.888;9.226;2023-06-24T02:55:04;158865.50;;;14.42;91.63
7940;BME280;4015;48.888;9.226;2023-06-24T02:57:30;158847.59;;;14.35;91.18
7940;BME280;4015;48.888;9.226;2023-06-24T02:59:57;158877.09;;;14.46;90.98
7940;BME280;4015;48.888;9.226;2023-06-24T03:02:23;158920.59;;;14.64;90.32
7940;BME280;4015;48.888;9.226;2023-06-24T03:04:50;158912.94;;;14.61;90.09
7940;BME280;4015;48.888;9.226;2023-06-24T03:07:17;158939.84;;;14.71;89.99
7940;BME280;4015;48.888;9.226;2023-06-24T03:09:47;158946.22;;;14.74;89.51
7940;BME280;4015;48.888;9.226;2023-06-24T03:12:12;158937.25;;;14.70;89.93
7940;BME280;4015;48.888;9.226;2023-06-24T03:14:38;158950.06;;;14.75;89.62
7940;BME280;4015;48.888;9.226;2023-06-24T03:17:03;158942.41;;;14.72;90.15
7940;BME280;4015;48.888;9.226;2023-06-24T03:19:28;158865.50;;;14.42;90.94
7940;BME280;4015;48.888;9.226;2023-06-24T03:21:54;158906.50;;;14.58;90.80
7940;BME280;4015;48.888;9.226;2023-06-24T03:24:19;158914.22;;;14.61;90.34
7940;BME280;4015;48.888;9.226;2023-06-24T03:26:45;158912.94;;;14.61;90.55
7940;BME280;4015;48.888;9.226;2023-06-24T03:29:10;158923.19;;;14.65;90.71
7940;BME280;4015;48.888;9.226;2023-06-24T03:31:37;158953.88;;;14.77;90.11
7940;BME280;4015;48.888;9.226;2023-06-24T03:34:08;158939.84;;;14.71;90.13
7940;BME280;4015;48.888;9.226;2023-06-24T03:36:34;158959.03;;;14.79;89.60
7940;BME280;4015;48.888;9.226;2023-06-24T03:38:59;158952.59;;;14.76;89.67
7940;BME280;4015;48.888;9.226;2023-06-24T03:41:25;158955.22;;;14.77;89.68
7940;BME280;4015;48.888;9.226;2023-06-24T03:43:51;158950.06;;;14.75;89.78
7940;BME280;4015;48.888;9.226;2023-06-24T03:46:16;158951.34;;;14.76;90.07
7940;BME280;4015;48.888;9.226;2023-06-24T03:48:42;158962.88;;;14.80;90.02
7940;BME280;4015;48.888;9.226;2023-06-24T03:51:08;158970.59;;;14.83;89.68
7940;BME280;4015;48.888;9.226;2023-06-24T03:53:33;159019.25;;;15.03;89.44
7940;BME280;4015;48.888;9.226;2023-06-24T03:55:58;159021.81;;;15.04;89.02
7940;BME280;4015;48.888;9.226;2023-06-24T03:58:24;159044.84;;;15.13;88.79
7940;BME280;4015;48.888;9.226;2023-06-24T04:00:50;159052.53;;;15.16;88.54
7940;BME280;4015;48.888;9.226;2023-06-24T04:03:16;159074.31;;;15.25;88.51
7940;BME280;4015;48.888;9.226;2023-06-24T04:05:44;159066.66;;;15.22;88.54
7940;BME280;4015;48.888;9.226;2023-06-24T04:08:09;159088.41;;;15.30;88.22
7940;BME280;4015;48.888;9.226;2023-06-24T04:10:34;159102.50;;;15.36;88.36
7940;BME280;4015;48.888;9.226;2023-06-24T04:13:00;159119.16;;;15.43;88.27
7940;BME280;4015;48.888;9.226;2023-06-24T04:15:25;159142.19;;;15.52;87.58
7940;BME280;4015;48.888;9.226;2023-06-24T04:17:50;159157.56;;;15.58;87.60
7940;BME280;4015;48.888;9.226;2023-06-24T04:20:16;159166.56;;;15.61;87.72
7940;BME280;4015;48.888;9.226;2023-06-24T04:22:41;159205.03;;;15.77;86.82
7940;BME280;4015;48.888;9.226;2023-06-24T04:25:08;159215.31;;;15.81;86.97
7940;BME280;4015;48.888;9.226;2023-06-24T04:27:33;159216.59;;;15.81;87.03
7940;BME280;4015;48.888;9.226;2023-06-24T04:30:02;159230.69;;;15.87;86.90
7940;BME280;4015;48.888;9.226;2023-06-24T04:32:28;159274.25;;;16.04;86.57
7940;BME280;4015;48.888;9.226;2023-06-24T04:34:53;159290.94;;;16.11;85.95
7940;BME280;4015;48.888;9.226;2023-06-24T04:37:18;159335.78;;;16.29;85.18
7940;BME280;4015;48.888;9.226;2023-06-24T04:39:44;159326.81;;;16.25;85.50
7940;BME280;4015;48.888;9.226;2023-06-24T04:42:10;159329.34;;;16.26;84.70
7940;BME280;4015;48.888;9.226;2023-06-24T04:44:36;159308.88;;;16.18;84.50
7940;BME280;4015;48.888;9.226;2023-06-24T04:47:02;159293.47;;;16.12;85.07
7940;BME280;4015;48.888;9.226;2023-06-24T04:49:27;159351.19;;;16.35;85.43
7940;BME280;4015;48.888;9.226;2023-06-24T04:51:52;159381.94;;;16.47;85.74
7940;BME280;4015;48.888;9.226;2023-06-24T04:54:18;159397.34;;;16.53;85.88
7940;BME280;4015;48.888;9.226;2023-06-24T04:56:43;159446.09;;;16.73;85.87
7940;BME280;4015;48.888;9.226;2023-06-24T04:59:10;159453.78;;;16.76;85.49
7940;BME280;4015;48.888;9.226;2023-06-24T05:01:35;159439.66;;;16.70;85.77
7940;BME280;4015;48.888;9.226;2023-06-24T05:04:00;159476.88;;;16.85;85.39
7940;BME280;4015;48.888;9.226;2023-06-24T05:06:26;159517.88;;;17.01;84.07
7940;BME280;4015;48.888;9.226;2023-06-24T05:08:52;159461.50;;;16.79;84.84
7940;BME280;4015;48.888;9.226;2023-06-24T05:11:17;159405.00;;;16.56;85.87
7940;BME280;4015;48.888;9.226;2023-06-24T05:13:42;159399.88;;;16.54;86.49
7940;BME280;4015;48.888;9.226;2023-06-24T05:16:07;159422.94;;;16.63;85.23
7940;BME280;4015;48.888;9.226;2023-06-24T05:18:33;159487.09;;;16.89;84.59
7940;BME280;4015;48.888;9.226;2023-06-24T05:20:58;159535.81;;;17.08;84.96
7940;BME280;4015;48.888;9.226;2023-06-24T05:23:23;159490.94;;;16.90;84.29
7940;BME280;4015;48.888;9.226;2023-06-24T05:25:49;159514.03;;;16.99;84.07
7940;BME280;4015;48.888;9.226;2023-06-24T05:28:14;159525.59;;;17.04;84.17
7940;BME280;4015;48.888;9.226;2023-06-24T05:30:40;159539.72;;;17.10;83.39
7940;BME280;4015;48.888;9.226;2023-06-24T05:33:06;159560.22;;;17.18;84.34
7940;BME280;4015;48.888;9.226;2023-06-24T05:35:31;159614.06;;;17.39;82.04
7940;BME280;4015;48.888;9.226;2023-06-24T05:37:56;159678.19;;;17.65;81.91
7940;BME280;4015;48.888;9.226;2023-06-24T05:40:22;159647.41;;;17.52;80.83
7940;BME280;4015;48.888;9.226;2023-06-24T05:42:47;159680.75;;;17.66;80.78
7940;BME280;4015;48.888;9.226;2023-06-24T05:45:12;159747.56;;;17.92;80.37
7940;BME280;4015;48.888;9.226;2023-06-24T05:47:38;159756.50;;;17.96;80.18
7940;BME280;4015;48.888;9.226;2023-06-24T05:50:04;159802.72;;;18.14;80.20
7940;BME280;4015;48.888;9.226;2023-06-24T05:52:29;159825.84;;;18.23;79.81
7940;BME280;4015;48.888;9.226;2023-06-24T05:54:55;159819.38;;;18.21;78.85
7940;BME280;4015;48.888;9.226;2023-06-24T05:57:20;159906.69;;;18.55;78.53
7940;BME280;4015;48.888;9.226;2023-06-24T05:59:45;160008.13;;;18.96;77.14
7940;BME280;4015;48.888;9.226;2023-06-24T06:02:11;160020.97;;;19.01;76.20
7940;BME280;4015;48.888;9.226;2023-06-24T06:04:37;160068.47;;;19.20;76.11
7940;BME280;4015;48.888;9.226;2023-06-24T06:07:03;160139.06;;;19.48;74.71
7940;BME280;4015;48.888;9.226;2023-06-24T06:09:29;160171.22;;;19.60;74.23
7940;BME280;4015;48.888;9.226;2023-06-24T06:11:54;160175.13;;;19.62;73.57
7940;BME280;4015;48.888;9.226;2023-06-24T06:14:20;160236.78;;;19.86;73.28
7940;BME280;4015;48.888;9.226;2023-06-24T06:16:45;160263.72;;;19.97;72.57
7940;BME280;4015;48.888;9.226;2023-06-24T06:19:10;160315.09;;;20.17;72.02
7940;BME280;4015;48.888;9.226;2023-06-24T06:21:36;160340.78;;;20.28;70.93
7940;BME280;4015;48.888;9.226;2023-06-24T06:24:02;160388.38;;;20.46;71.06
7940;BME280;4015;48.888;9.226;2023-06-24T06:26:28;160432.09;;;20.64;70.93
7940;BME280;4015;48.888;9.226;2023-06-24T06:28:53;160520.72;;;20.99;69.48
7940;BME280;4015;48.888;9.226;2023-06-24T06:31:19;160522.06;;;20.99;70.55
7940;BME280;4015;48.888;9.226;2023-06-24T06:33:44;160491.22;;;20.87;68.95
7940;BME280;4015;48.888;9.226;2023-06-24T06:36:09;160536.16;;;21.05;70.13
7940;BME280;4015;48.888;9.226;2023-06-24T06:38:35;160633.94;;;21.44;68.13
7940;BME280;4015;48.888;9.226;2023-06-24T06:41:00;160642.91;;;21.47;68.50
7940;BME280;4015;48.888;9.226;2023-06-24T06:43:26;160654.47;;;21.52;68.60
7940;BME280;4015;48.888;9.226;2023-06-24T06:45:51;160682.78;;;21.63;67.00
7940;BME280;4015;48.888;9.226;2023-06-24T06:48:16;160690.47;;;21.66;67.98
7940;BME280;4015;48.888;9.226;2023-06-24T06:50:42;160734.19;;;21.84;67.58
7940;BME280;4015;48.888;9.226;2023-06-24T06:53:07;160792.06;;;22.06;64.93
7940;BME280;4015;48.888;9.226;2023-06-24T06:55:32;160783.06;;;22.03;64.01
7940;BME280;4015;48.888;9.226;2023-06-24T06:57:58;160905.28;;;22.51;65.87
7940;BME280;4015;48.888;9.226;2023-06-24T07:00:23;160840.97;;;22.26;65.38
7940;BME280;4015;48.888;9.226;2023-06-24T07:02:48;160822.94;;;22.19;64.83
7940;BME280;4015;48.888;9.226;2023-06-24T07:05:14;160937.44;;;22.64;64.58
7940;BME280;4015;48.888;9.226;2023-06-24T07:07:40;160842.28;;;22.26;62.40
7940;BME280;4015;48.888;9.226;2023-06-24T07:10:06;160879.56;;;22.41;63.86
7940;BME280;4015;48.888;9.226;2023-06-24T07:12:31;160992.75;;;22.86;62.15
7940;BME280;4015;48.888;9.226;2023-06-24T07:14:56;161089.28;;;23.24;61.28
7940;BME280;4015;48.888;9.226;2023-06-24T07:17:22;161286.25;;;24.02;60.45
7940;BME280;4015;48.888;9.226;2023-06-24T07:19:47;161398.31;;;24.46;56.50
7940;BME280;4015;48.888;9.226;2023-06-24T07:22:14;161547.72;;;25.06;56.82
7940;BME280;4015;48.888;9.226;2023-06-24T07:24:39;161729.41;;;25.77;53.58
7940;BME280;4015;48.888;9.226;2023-06-24T07:27:05;161823.41;;;26.15;52.61
7940;BME280;4015;48.888;9.226;2023-06-24T07:29:30;162072.28;;;27.13;52.05
7940;BME280;4015;48.888;9.226;2023-06-24T07:31:55;162418.00;;;28.49;47.96
7940;BME280;4015;48.888;9.226;2023-06-24T07:34:21;162580.59;;;29.14;47.65
7940;BME280;4015;48.888;9.226;2023-06-24T07:36:46;162286.41;;;27.98;48.45
7940;BME280;4015;48.888;9.226;2023-06-24T07:39:11;162452.81;;;28.63;47.16
7940;BME280;4015;48.888;9.226;2023-06-24T07:41:37;162741.94;;;29.77;45.57
7940;BME280;4015;48.888;9.226;2023-06-24T07:44:02;162873.63;;;30.29;43.93
7940;BME280;4015;48.888;9.226;2023-06-24T07:46:27;162969.19;;;30.67;43.73
7940;BME280;4015;48.888;9.226;2023-06-24T07:48:53;163280.59;;;31.90;42.87
7940;BME280;4015;48.888;9.226;2023-06-24T07:51:18;163393.03;;;32.34;40.79
7940;BME280;4015;48.888;9.226;2023-06-24T07:53:44;163320.63;;;32.06;42.06
7940;BME280;4015;48.888;9.226;2023-06-24T07:56:09;163514.53;;;32.82;40.12
7940;BME280;4015;48.888;9.226;2023-06-24T07:58:35;163580.47;;;33.08;39.40
7940;BME280;4015;48.888;9.226;2023-06-24T08:01:03;163563.69;;;33.01;39.12
7940;BME280;4015;48.888;9.226;2023-06-24T08:03:28;163408.53;;;32.40;39.76
7940;BME280;4015;48.888;9.226;2023-06-24T08:05:53;163670.97;;;33.44;39.57
7940;BME280;4015;48.888;9.226;2023-06-24T08:08:19;163928.38;;;34.45;38.29
7940;BME280;4015;48.888;9.226;2023-06-24T08:10:45;163810.66;;;33.99;37.78
7940;BME280;4015;48.888;9.226;2023-06-24T08:13:11;163685.19;;;33.49;38.09
7940;BME280;4015;48.888;9.226;2023-06-24T08:15:36;163713.63;;;33.61;38.92
7940;BME280;4015;48.888;9.226;2023-06-24T08:18:01;163213.38;;;31.63;39.01
7940;BME280;4015;48.888;9.226;2023-06-24T08:20:27;163580.47;;;33.08;39.78
7940;BME280;4015;48.888;9.226;2023-06-24T08:22:52;163603.72;;;33.17;39.16
7940;BME280;4015;48.888;9.226;2023-06-24T08:25:17;163699.41;;;33.55;38.20
7940;BME280;4015;48.888;9.226;2023-06-24T08:27:43;164022.78;;;34.82;38.48
7940;BME280;4015;48.888;9.226;2023-06-24T08:30:12;164064.19;;;34.99;36.50
7940;BME280;4015;48.888;9.226;2023-06-24T08:32:38;164034.41;;;34.87;36.01
7940;BME280;4015;48.888;9.226;2023-06-24T08:35:06;164131.44;;;35.25;36.38
7940;BME280;4015;48.888;9.226;2023-06-24T08:37:31;164457.66;;;36.54;36.03
7940;BME280;4015;48.888;9.226;2023-06-24T08:39:56;164505.53;;;36.72;34.47
7940;BME280;4015;48.888;9.226;2023-06-24T08:42:22;164389.00;;;36.27;34.44
7940;BME280;4015;48.888;9.226;2023-06-24T08:44:48;164563.78;;;36.95;33.32
7940;BME280;4015;48.888;9.226;2023-06-24T08:47:13;164650.53;;;37.30;34.60
7940;BME280;4015;48.888;9.226;2023-06-24T08:49:47;164394.19;;;36.29;33.18
7940;BME280;4015;48.888;9.226;2023-06-24T08:52:16;164660.91;;;37.34;33.36
7940;BME280;4015;48.888;9.226;2023-06-24T08:54:46;164726.97;;;37.60;33.12
7940;BME280;4015;48.888;9.226;2023-06-24T08:57:12;164834.44;;;38.02;31.12
7940;BME280;4015;48.888;9.226;2023-06-24T08:59:41;164255.69;;;35.74;32.60
7940;BME280;4015;48.888;9.226;2023-06-24T09:02:06;163980.09;;;34.66;36.06
7940;BME280;4015;48.888;9.226;2023-06-24T09:04:32;164429.19;;;36.42;34.93
7940;BME280;4015;48.888;9.226;2023-06-24T09:06:57;164686.81;;;37.44;32.48
7940;BME280;4015;48.888;9.226;2023-06-24T09:09:23;164572.88;;;36.99;32.10
7940;BME280;4015;48.888;9.226;2023-06-24T09:11:52;164473.19;;;36.60;32.89
7940;BME280;4015;48.888;9.226;2023-06-24T09:14:18;164793.03;;;37.86;31.45
7940;BME280;4015;48.888;9.226;2023-06-24T09:16:57;164768.38;;;37.76;31.49
7940;BME280;4015;48.888;9.226;2023-06-24T09:19:26;164794.34;;;37.86;31.05
7940;BME280;4015;48.888;9.226;2023-06-24T09:22:01;164903.16;;;38.29;30.55
7940;BME280;4015;48.888;9.226;2023-06-24T09:24:27;164872.03;;;38.17;30.19
7940;BME280;4015;48.888;9.226;2023-06-24T09:26:55;164794.34;;;37.86;31.29
7940;BME280;4015;48.888;9.226;2023-06-24T09:29:25;164761.91;;;37.73;31.31
7940;BME280;4015;48.888;9.226;2023-06-24T09:31:51;164534.03;;;36.84;30.77
7940;BME280;4015;48.888;9.226;2023-06-24T09:34:18;164655.72;;;37.32;31.33
7940;BME280;4015;48.888;9.226;2023-06-24T09:36:45;164625.94;;;37.20;31.03
7940;BME280;4015;48.888;9.226;2023-06-24T09:39:16;164569.00;;;36.97;30.89
7940;BME280;4015;48.888;9.226;2023-06-24T09:41:41;164725.69;;;37.59;31.04
7940;BME280;4015;48.888;9.226;2023-06-24T09:44:12;164829.28;;;38.00;30.17
7940;BME280;4015;48.888;9.226;2023-06-24T09:46:38;164956.22;;;38.50;30.09
7940;BME280;4015;48.888;9.226;2023-06-24T09:49:04;165058.56;;;38.90;30.95
7940;BME280;4015;48.888;9.226;2023-06-24T09:51:33;164939.41;;;38.43;29.60
7940;BME280;4015;48.888;9.226;2023-06-24T09:54:04;164892.72;;;38.25;28.52
7940;BME280;4015;48.888;9.226;2023-06-24T09:56:31;164905.75;;;38.30;30.40
7940;BME280;4015;48.888;9.226;2023-06-24T09:58:57;164777.47;;;37.79;29.88
7940;BME280;4015;48.888;9.226;2023-06-24T10:01:23;164691.97;;;37.46;29.46
7940;BME280;4015;48.888;9.226;2023-06-24T10:03:48;164958.81;;;38.51;29.36
7940;BME280;4015;48.888;9.226;2023-06-24T10:06:14;164971.78;;;38.56;28.98
7940;BME280;4015;48.888;9.226;2023-06-24T10:08:39;164961.41;;;38.52;29.29
7940;BME280;4015;48.888;9.226;2023-06-24T10:11:05;165054.69;;;38.89;30.36
7940;BME280;4015;48.888;9.226;2023-06-24T10:13:30;164899.25;;;38.27;30.33
7940;BME280;4015;48.888;9.226;2023-06-24T10:15:56;165442.16;;;40.41;28.90
7940;BME280;4015;48.888;9.226;2023-06-24T10:20:56;164957.53;;;38.50;28.98
7940;BME280;4015;48.888;9.226;2023-06-24T10:23:22;164947.16;;;38.46;28.54
7940;BME280;4015;48.888;9.226;2023-06-24T10:25:48;165453.84;;;40.45;26.95
7940;BME280;4015;48.888;9.226;2023-06-24T10:28:13;165457.75;;;40.47;28.50
7940;BME280;4015;48.888;9.226;2023-06-24T10:30:38;165088.38;;;39.02;29.27
7940;BME280;4015;48.888;9.226;2023-06-24T10:33:09;165198.50;;;39.45;28.36
7940;BME280;4015;48.888;9.226;2023-06-24T10:35:41;165180.38;;;39.38;28.82
7940;BME280;4015;48.888;9.226;2023-06-24T10:38:09;165385.19;;;40.18;27.62
7940;BME280;4015;48.888;9.226;2023-06-24T10:40:40;165627.59;;;41.14;27.05
7940;BME280;4015;48.888;9.226;2023-06-24T10:43:26;165838.94;;;41.97;26.75
7940;BME280;4015;48.888;9.226;2023-06-24T10:45:53;165692.44;;;41.39;27.67
7940;BME280;4015;48.888;9.226;2023-06-24T10:48:18;165802.66;;;41.83;27.72
7940;BME280;4015;48.888;9.226;2023-06-24T10:50:47;165430.53;;;40.36;28.30
7940;BME280;4015;48.888;9.226;2023-06-24T10:53:13;165479.81;;;40.56;27.81
7940;BME280;4015;48.888;9.226;2023-06-24T10:55:39;165592.59;;;41.00;27.12
7940;BME280;4015;48.888;9.226;2023-06-24T10:58:11;165348.91;;;40.04;27.93
7940;BME280;4015;48.888;9.226;2023-06-24T11:00:38;165037.84;;;38.82;29.66
7940;BME280;4015;48.888;9.226;2023-06-24T11:03:15;165181.69;;;39.38;29.17
7940;BME280;4015;48.888;9.226;2023-06-24T11:05:43;165621.13;;;41.11;28.14
7940;BME280;4015;48.888;9.226;2023-06-24T11:08:09;165367.06;;;40.11;27.82
7940;BME280;4015;48.888;9.226;2023-06-24T11:10:48;165320.34;;;39.93;27.65
7940;BME280;4015;48.888;9.226;2023-06-24T11:13:13;164921.28;;;38.36;28.11
7940;BME280;4015;48.888;9.226;2023-06-24T11:15:40;165063.78;;;38.92;29.70
7940;BME280;4015;48.888;9.226;2023-06-24T11:18:09;165133.75;;;39.20;27.83
7940;BME280;4015;48.888;9.226;2023-06-24T11:20:36;165132.47;;;39.19;27.79
7940;BME280;4015;48.888;9.226;2023-06-24T11:23:02;165167.44;;;39.33;27.43
7940;BME280;4015;48.888;9.226;2023-06-24T11:25:31;165307.38;;;39.88;28.74
7940;BME280;4015;48.888;9.226;2023-06-24T11:27:56;165547.19;;;40.82;27.32
7940;BME280;4015;48.888;9.226;2023-06-24T11:30:22;165163.56;;;39.31;26.85
7940;BME280;4015;48.888;9.226;2023-06-24T11:32:47;165291.84;;;39.82;27.94
7940;BME280;4015;48.888;9.226;2023-06-24T11:35:14;165446.09;;;40.42;27.55
7940;BME280;4015;48.888;9.226;2023-06-24T11:37:46;165394.22;;;40.22;26.03
7940;BME280;4015;48.888;9.226;2023-06-24T11:40:13;165526.47;;;40.74;26.08
7940;BME280;4015;48.888;9.226;2023-06-24T11:42:42;165516.09;;;40.70;27.35
7940;BME280;4015;48.888;9.226;2023-06-24T11:45:11;165914.22;;;42.26;25.57
7940;BME280;4015;48.888;9.226;2023-06-24T11:47:38;165859.69;;;42.05;25.59
7940;BME280;4015;48.888;9.226;2023-06-24T11:50:05;165750.78;;;41.62;26.37
7940;BME280;4015;48.888;9.226;2023-06-24T11:52:45;165632.75;;;41.16;25.72
7940;BME280;4015;48.888;9.226;2023-06-24T11:55:24;165767.63;;;41.69;25.20
7940;BME280;4015;48.888;9.226;2023-06-24T11:58:03;165715.75;;;41.48;24.64
7940;BME280;4015;48.888;9.226;2023-06-24T12:00:32;165680.75;;;41.35;26.37
7940;BME280;4015;48.888;9.226;2023-06-24T12:03:02;165683.34;;;41.36;26.58
7940;BME280;4015;48.888;9.226;2023-06-24T12:05:30;165842.81;;;41.98;26.58
7940;BME280;4015;48.888;9.226;2023-06-24T12:10:29;165803.97;;;41.83;27.71
7940;BME280;4015;48.888;9.226;2023-06-24T12:12:56;165744.28;;;41.60;26.95
7940;BME280;4015;48.888;9.226;2023-06-24T12:15:22;165718.38;;;41.49;26.50
7940;BME280;4015;48.888;9.226;2023-06-24T12:17:47;165503.13;;;40.65;26.42
7940;BME280;4015;48.888;9.226;2023-06-24T12:20:16;166014.06;;;42.66;24.79
7940;BME280;4015;48.888;9.226;2023-06-24T12:22:43;165317.78;;;39.92;27.24
7940;BME280;4015;48.888;9.226;2023-06-24T12:25:08;165741.69;;;41.59;26.91
7940;BME280;4015;48.888;9.226;2023-06-24T12:27:34;165744.28;;;41.60;26.73
7940;BME280;4015;48.888;9.226;2023-06-24T12:29:59;165477.22;;;40.55;27.80
7940;BME280;4015;48.888;9.226;2023-06-24T12:32:26;165370.94;;;40.13;27.98
7940;BME280;4015;48.888;9.226;2023-06-24T12:34:51;165757.25;;;41.65;26.73
7940;BME280;4015;48.888;9.226;2023-06-24T12:37:16;165801.38;;;41.82;26.03
7940;BME280;4015;48.888;9.226;2023-06-24T12:39:41;165814.34;;;41.87;26.36
7940;BME280;4015;48.888;9.226;2023-06-24T12:42:07;165995.94;;;42.59;26.32
7940;BME280;4015;48.888;9.226;2023-06-24T12:44:32;166294.28;;;43.76;24.42
7940;BME280;4015;48.888;9.226;2023-06-24T12:46:58;166154.19;;;43.21;24.95
7940;BME280;4015;48.888;9.226;2023-06-24T12:49:23;166132.09;;;43.12;25.60
7940;BME280;4015;48.888;9.226;2023-06-24T12:51:48;165885.63;;;42.15;26.92
7940;BME280;4015;48.888;9.226;2023-06-24T12:54:13;166011.50;;;42.65;25.61
7940;BME280;4015;48.888;9.226;2023-06-24T12:56:39;166010.19;;;42.64;26.65
7940;BME280;4015;48.888;9.226;2023-06-24T12:59:04;165702.81;;;41.43;25.85
7940;BME280;4015;48.888;9.226;2023-06-24T13:01:31;165976.44;;;42.51;26.42
7940;BME280;4015;48.888;9.226;2023-06-24T13:03:56;165579.63;;;40.95;27.42
7940;BME280;4015;48.888;9.226;2023-06-24T13:06:21;164945.84;;;38.46;28.49
7940;BME280;4015;48.888;9.226;2023-06-24T13:08:47;164170.28;;;35.40;30.82
7940;BME280;4015;48.888;9.226;2023-06-24T13:11:12;164008.56;;;34.77;31.53
7940;BME280;4015;48.888;9.226;2023-06-24T13:13:37;163950.34;;;34.54;31.89
7940;BME280;4015;48.888;9.226;2023-06-24T13:16:03;164451.16;;;36.51;30.83
7940;BME280;4015;48.888;9.226;2023-06-24T13:18:28;165126.00;;;39.17;27.55
7940;BME280;4015;48.888;9.226;2023-06-24T13:20:53;165636.69;;;41.17;26.60
7940;BME280;4015;48.888;9.226;2023-06-24T13:23:19;165831.19;;;41.94;25.90
7940;BME280;4015;48.888;9.226;2023-06-24T13:25:44;166038.72;;;42.75;25.48